sensor_id;sensor_type;location;lat;lon;timestamp;P1;durP1;ratioP1;P2;durP2;ratioP2
6388;SDS011;3227;42.654;23.360;2022-10-31T00:00:53;8.33;;;4.10;;
6388;SDS011;3227;42.654;23.360;2022-10-31T00:03:20;8.63;;;4.10;;
6388;SDS011;3227;42.654;23.360;2022-10-31T00:05:47;11.43;;;4.60;;
6388;SDS011;3227;42.654;23.360;2022-10-31T00:08:15;9.13;;;4.60;;
6388;SDS011;3227;42.654;23.360;2022-10-31T00:10:45;8.43;;;4.40;;
6388;SDS011;3227;42.654;23.360;2022-10-31T00:13:12;7.13;;;4.33;;
6388;SDS011;3227;42.654;23.360;2022-10-31T00:15:40;9.70;;;4.47;;
6388;SDS011;3227;42.654;23.360;2022-10-31T00:18:07;9.60;;;4.80;;
6388;SDS011;3227;42.654;23.360;2022-10-31T00:20:35;9.13;;;4.37;;
6388;SDS011;3227;42.654;23.360;2022-10-31T00:23:02;9.90;;;4.67;;
6388;SDS011;3227;42.654;23.360;2022-10-31T00:25:32;10.47;;;4.67;;
6388;SDS011;3227;42.654;23.360;2022-10-31T00:28:02;10.77;;;4.60;;
6388;SDS011;3227;42.654;23.360;2022-10-31T00:30:29;7.00;;;4.00;;
6388;SDS011;3227;42.654;23.360;2022-10-31T00:32:56;11.20;;;4.50;;
6388;SDS011;3227;42.654;23.360;2022-10-31T00:35:23;13.00;;;4.80;;
6388;SDS011;3227;42.654;23.360;2022-10-31T00:37:51;8.33;;;4.50;;
6388;SDS011;3227;42.654;23.360;2022-10-31T00:40:19;8.43;;;4.47;;
6388;SDS011;3227;42.654;23.360;2022-10-31T00:42:46;9.17;;;4.50;;
6388;SDS011;3227;42.654;23.360;2022-10-31T00:45:14;10.03;;;4.23;;
6388;SDS011;3227;42.654;23.360;2022-10-31T00:47:41;10.37;;;4.40;;
6388;SDS011;3227;42.654;23.360;2022-10-31T00:50:08;9.87;;;4.20;;
6388;SDS011;3227;42.654;23.360;2022-10-31T00:52:35;8.23;;;4.10;;
6388;SDS011;3227;42.654;23.360;2022-10-31T00:55:01;9.77;;;4.47;;
6388;SDS011;3227;42.654;23.360;2022-10-31T00:57:28;12.67;;;4.43;;
6388;SDS011;3227;42.654;23.360;2022-10-31T00:59:55;11.23;;;4.30;;
6388;SDS011;3227;42.654;23.360;2022-10-31T01:02:24;11.20;;;4.90;;
6388;SDS011;3227;42.654;23.360;2022-10-31T01:04:51;10.73;;;4.83;;
6388;SDS011;3227;42.654;23.360;2022-10-31T01:07:18;11.10;;;4.87;;
6388;SDS011;3227;42.654;23.360;2022-10-31T01:09:45;14.03;;;5.83;;
6388;SDS011;3227;42.654;23.360;2022-10-31T01:12:12;10.07;;;4.77;;
6388;SDS011;3227;42.654;23.360;2022-10-31T01:14:42;12.47;;;4.87;;
6388;SDS011;3227;42.654;23.360;2022-10-31T01:17:09;9.10;;;4.77;;
6388;SDS011;3227;42.654;23.360;2022-10-31T01:19:37;10.50;;;4.40;;
6388;SDS011;3227;42.654;23.360;2022-10-31T01:22:04;10.83;;;4.60;;
6388;SDS011;3227;42.654;23.360;2022-10-31T01:24:31;9.83;;;4.87;;
6388;SDS011;3227;42.654;23.360;2022-10-31T01:26:57;10.23;;;5.07;;
6388;SDS011;3227;42.654;23.360;2022-10-31T01:29:24;8.73;;;4.70;;
6388;SDS011;3227;42.654;23.360;2022-10-31T01:31:51;9.60;;;4.90;;
6388;SDS011;3227;42.654;23.360;2022-10-31T01:34:18;10.47;;;4.97;;
6388;SDS011;3227;42.654;23.360;2022-10-31T01:36:46;9.00;;;5.07;;
6388;SDS011;3227;42.654;23.360;2022-10-31T01:39:16;10.40;;;5.40;;
6388;SDS011;3227;42.654;23.360;2022-10-31T01:41:45;12.40;;;5.43;;
6388;SDS011;3227;42.654;23.360;2022-10-31T01:47:39;11.13;;;6.10;;
6388;SDS011;3227;42.654;23.360;2022-10-31T01:50:10;16.20;;;7.03;;
6388;SDS011;3227;42.654;23.360;2022-10-31T01:52:53;14.40;;;6.93;;
6388;SDS011;3227;42.654;23.360;2022-10-31T01:55:22;11.40;;;6.77;;
6388;SDS011;3227;42.654;23.360;2022-10-31T01:57:53;13.00;;;6.97;;
6388;SDS011;3227;42.654;23.360;2022-10-31T02:00:23;15.03;;;7.10;;
6388;SDS011;3227;42.654;23.360;2022-10-31T02:02:50;13.97;;;7.33;;
6388;SDS011;3227;42.654;23.360;2022-10-31T02:05:18;13.60;;;6.87;;
6388;SDS011;3227;42.654;23.360;2022-10-31T02:07:48;14.70;;;8.30;;
6388;SDS011;3227;42.654;23.360;2022-10-31T02:10:23;11.50;;;7.13;;
6388;SDS011;3227;42.654;23.360;2022-10-31T02:12:50;12.73;;;7.10;;
6388;SDS011;3227;42.654;23.360;2022-10-31T02:15:19;13.70;;;7.53;;
6388;SDS011;3227;42.654;23.360;2022-10-31T02:17:46;13.67;;;7.50;;
6388;SDS011;3227;42.654;23.360;2022-10-31T02:20:15;13.30;;;7.07;;
6388;SDS011;3227;42.654;23.360;2022-10-31T02:22:50;13.97;;;7.27;;
6388;SDS011;3227;42.654;23.360;2022-10-31T02:25:51;10.87;;;6.00;;
6388;SDS011;3227;42.654;23.360;2022-10-31T02:28:33;11.63;;;6.73;;
6388;SDS011;3227;42.654;23.360;2022-10-31T02:31:27;12.87;;;6.97;;
6388;SDS011;3227;42.654;23.360;2022-10-31T02:34:01;13.37;;;7.30;;
6388;SDS011;3227;42.654;23.360;2022-10-31T02:36:39;14.03;;;6.80;;
6388;SDS011;3227;42.654;23.360;2022-10-31T02:39:12;12.53;;;7.17;;
6388;SDS011;3227;42.654;23.360;2022-10-31T02:41:46;13.47;;;6.97;;
6388;SDS011;3227;42.654;23.360;2022-10-31T02:44:20;11.33;;;7.20;;
6388;SDS011;3227;42.654;23.360;2022-10-31T02:46:54;12.87;;;6.80;;
6388;SDS011;3227;42.654;23.360;2022-10-31T02:49:27;14.40;;;6.33;;
6388;SDS011;3227;42.654;23.360;2022-10-31T02:51:58;12.63;;;6.97;;
6388;SDS011;3227;42.654;23.360;2022-10-31T02:54:25;13.73;;;7.33;;
6388;SDS011;3227;42.654;23.360;2022-10-31T02:56:54;13.33;;;7.07;;
6388;SDS011;3227;42.654;23.360;2022-10-31T02:59:26;13.50;;;7.00;;
6388;SDS011;3227;42.654;23.360;2022-10-31T03:02:06;14.80;;;6.53;;
6388;SDS011;3227;42.654;23.360;2022-10-31T03:07:36;13.20;;;6.73;;
6388;SDS011;3227;42.654;23.360;2022-10-31T03:10:14;16.53;;;7.40;;
6388;SDS011;3227;42.654;23.360;2022-10-31T03:12:48;16.37;;;7.10;;
6388;SDS011;3227;42.654;23.360;2022-10-31T03:15:23;14.83;;;8.07;;
6388;SDS011;3227;42.654;23.360;2022-10-31T03:17:56;14.83;;;8.00;;
6388;SDS011;3227;42.654;23.360;2022-10-31T03:20:28;16.27;;;7.87;;
6388;SDS011;3227;42.654;23.360;2022-10-31T03:23:00;13.83;;;8.23;;
6388;SDS011;3227;42.654;23.360;2022-10-31T03:25:30;17.27;;;7.87;;
6388;SDS011;3227;42.654;23.360;2022-10-31T03:27:59;13.03;;;7.30;;
6388;SDS011;3227;42.654;23.360;2022-10-31T03:30:28;13.73;;;7.97;;
6388;SDS011;3227;42.654;23.360;2022-10-31T03:33:00;12.07;;;7.47;;
6388;SDS011;3227;42.654;23.360;2022-10-31T03:38:23;15.23;;;8.33;;
6388;SDS011;3227;42.654;23.360;2022-10-31T03:40:51;14.83;;;7.87;;
6388;SDS011;3227;42.654;23.360;2022-10-31T03:43:22;14.40;;;8.13;;
6388;SDS011;3227;42.654;23.360;2022-10-31T03:45:54;12.77;;;7.80;;
6388;SDS011;3227;42.654;23.360;2022-10-31T03:48:23;14.80;;;7.87;;
6388;SDS011;3227;42.654;23.360;2022-10-31T03:50:52;12.13;;;6.97;;
6388;SDS011;3227;42.654;23.360;2022-10-31T03:53:27;15.93;;;7.10;;
6388;SDS011;3227;42.654;23.360;2022-10-31T03:55:59;17.20;;;8.00;;
6388;SDS011;3227;42.654;23.360;2022-10-31T03:58:32;12.07;;;7.00;;
6388;SDS011;3227;42.654;23.360;2022-10-31T04:01:04;18.07;;;7.53;;
6388;SDS011;3227;42.654;23.360;2022-10-31T04:03:35;13.60;;;7.27;;
6388;SDS011;3227;42.654;23.360;2022-10-31T04:06:05;16.07;;;7.77;;
6388;SDS011;3227;42.654;23.360;2022-10-31T04:08:36;12.87;;;7.27;;
6388;SDS011;3227;42.654;23.360;2022-10-31T04:11:07;13.53;;;7.40;;
6388;SDS011;3227;42.654;23.360;2022-10-31T04:13:35;12.60;;;7.80;;
6388;SDS011;3227;42.654;23.360;2022-10-31T04:16:04;14.00;;;7.77;;
6388;SDS011;3227;42.654;23.360;2022-10-31T04:18:32;12.60;;;7.30;;
6388;SDS011;3227;42.654;23.360;2022-10-31T04:21:01;16.57;;;8.03;;
6388;SDS011;3227;42.654;23.360;2022-10-31T04:23:29;12.60;;;7.33;;
6388;SDS011;3227;42.654;23.360;2022-10-31T04:25:57;12.67;;;7.57;;
6388;SDS011;3227;42.654;23.360;2022-10-31T04:28:24;18.33;;;7.77;;
6388;SDS011;3227;42.654;23.360;2022-10-31T04:30:51;16.50;;;7.90;;
6388;SDS011;3227;42.654;23.360;2022-10-31T04:33:18;18.53;;;7.47;;
6388;SDS011;3227;42.654;23.360;2022-10-31T04:35:46;14.07;;;7.37;;
6388;SDS011;3227;42.654;23.360;2022-10-31T04:38:13;13.07;;;7.53;;
6388;SDS011;3227;42.654;23.360;2022-10-31T04:40:39;14.93;;;8.13;;
6388;SDS011;3227;42.654;23.360;2022-10-31T04:43:06;16.67;;;7.63;;
6388;SDS011;3227;42.654;23.360;2022-10-31T04:45:33;14.07;;;7.57;;
6388;SDS011;3227;42.654;23.360;2022-10-31T04:48:00;12.80;;;7.37;;
6388;SDS011;3227;42.654;23.360;2022-10-31T04:50:26;13.07;;;7.30;;
6388;SDS011;3227;42.654;23.360;2022-10-31T04:52:54;16.93;;;7.70;;
6388;SDS011;3227;42.654;23.360;2022-10-31T04:55:21;15.50;;;7.60;;
6388;SDS011;3227;42.654;23.360;2022-10-31T04:57:49;22.20;;;8.23;;
6388;SDS011;3227;42.654;23.360;2022-10-31T05:00:17;15.77;;;7.40;;
6388;SDS011;3227;42.654;23.360;2022-10-31T05:02:45;17.17;;;8.37;;
6388;SDS011;3227;42.654;23.360;2022-10-31T05:05:13;13.23;;;7.80;;
6388;SDS011;3227;42.654;23.360;2022-10-31T05:07:41;17.57;;;9.07;;
6388;SDS011;3227;42.654;23.360;2022-10-31T05:10:11;16.33;;;8.27;;
6388;SDS011;3227;42.654;23.360;2022-10-31T05:12:45;21.33;;;9.13;;
6388;SDS011;3227;42.654;23.360;2022-10-31T05:15:13;18.60;;;8.87;;
6388;SDS011;3227;42.654;23.360;2022-10-31T05:17:40;20.20;;;9.00;;
6388;SDS011;3227;42.654;23.360;2022-10-31T05:20:07;20.00;;;8.13;;
6388;SDS011;3227;42.654;23.360;2022-10-31T05:22:34;24.63;;;9.30;;
6388;SDS011;3227;42.654;23.360;2022-10-31T05:25:01;16.37;;;8.57;;
6388;SDS011;3227;42.654;23.360;2022-10-31T05:27:30;17.37;;;8.77;;
6388;SDS011;3227;42.654;23.360;2022-10-31T05:29:56;20.80;;;9.67;;
6388;SDS011;3227;42.654;23.360;2022-10-31T05:32:23;16.13;;;10.00;;
6388;SDS011;3227;42.654;23.360;2022-10-31T05:34:50;18.13;;;10.20;;
6388;SDS011;3227;42.654;23.360;2022-10-31T05:37:17;23.20;;;10.53;;
6388;SDS011;3227;42.654;23.360;2022-10-31T05:39:43;20.70;;;10.43;;
6388;SDS011;3227;42.654;23.360;2022-10-31T05:42:10;20.53;;;9.63;;
6388;SDS011;3227;42.654;23.360;2022-10-31T05:44:38;23.50;;;10.80;;
6388;SDS011;3227;42.654;23.360;2022-10-31T05:47:05;21.60;;;10.10;;
6388;SDS011;3227;42.654;23.360;2022-10-31T05:49:32;23.77;;;9.93;;
6388;SDS011;3227;42.654;23.360;2022-10-31T05:51:59;19.57;;;10.40;;
6388;SDS011;3227;42.654;23.360;2022-10-31T05:54:25;19.50;;;9.63;;
6388;SDS011;3227;42.654;23.360;2022-10-31T05:56:52;20.03;;;10.67;;
6388;SDS011;3227;42.654;23.360;2022-10-31T05:59:19;19.67;;;10.97;;
6388;SDS011;3227;42.654;23.360;2022-10-31T06:01:48;18.60;;;10.87;;
6388;SDS011;3227;42.654;23.360;2022-10-31T06:04:15;25.47;;;12.73;;
6388;SDS011;3227;42.654;23.360;2022-10-31T06:06:41;28.00;;;12.53;;
6388;SDS011;3227;42.654;23.360;2022-10-31T06:09:09;21.73;;;11.30;;
6388;SDS011;3227;42.654;23.360;2022-10-31T06:11:35;29.47;;;12.40;;
6388;SDS011;3227;42.654;23.360;2022-10-31T06:14:02;22.60;;;11.80;;
6388;SDS011;3227;42.654;23.360;2022-10-31T06:16:29;20.20;;;11.97;;
6388;SDS011;3227;42.654;23.360;2022-10-31T06:18:58;24.73;;;13.83;;
6388;SDS011;3227;42.654;23.360;2022-10-31T06:21:24;22.40;;;11.07;;
6388;SDS011;3227;42.654;23.360;2022-10-31T06:23:51;20.17;;;11.03;;
6388;SDS011;3227;42.654;23.360;2022-10-31T06:26:18;23.90;;;10.73;;
6388;SDS011;3227;42.654;23.360;2022-10-31T06:28:45;22.03;;;11.83;;
6388;SDS011;3227;42.654;23.360;2022-10-31T06:31:11;20.17;;;11.43;;
6388;SDS011;3227;42.654;23.360;2022-10-31T06:33:40;22.10;;;12.10;;
6388;SDS011;3227;42.654;23.360;2022-10-31T06:36:09;24.43;;;11.87;;
6388;SDS011;3227;42.654;23.360;2022-10-31T06:38:36;19.27;;;10.57;;
6388;SDS011;3227;42.654;23.360;2022-10-31T06:41:03;19.53;;;10.97;;
6388;SDS011;3227;42.654;23.360;2022-10-31T06:43:30;18.17;;;10.50;;
6388;SDS011;3227;42.654;23.360;2022-10-31T06:46:01;17.80;;;10.93;;
6388;SDS011;3227;42.654;23.360;2022-10-31T06:48:28;24.17;;;11.20;;
6388;SDS011;3227;42.654;23.360;2022-10-31T06:50:57;18.00;;;10.57;;
6388;SDS011;3227;42.654;23.360;2022-10-31T06:53:25;20.33;;;11.13;;
6388;SDS011;3227;42.654;23.360;2022-10-31T06:55:52;26.67;;;11.40;;
6388;SDS011;3227;42.654;23.360;2022-10-31T06:58:19;17.40;;;11.50;;
6388;SDS011;3227;42.654;23.360;2022-10-31T07:00:46;17.20;;;11.47;;
6388;SDS011;3227;42.654;23.360;2022-10-31T07:03:13;22.70;;;11.90;;
6388;SDS011;3227;42.654;23.360;2022-10-31T07:05:41;19.40;;;12.17;;
6388;SDS011;3227;42.654;23.360;2022-10-31T07:08:09;19.67;;;12.23;;
6388;SDS011;3227;42.654;23.360;2022-10-31T07:10:39;17.90;;;11.90;;
6388;SDS011;3227;42.654;23.360;2022-10-31T07:13:08;21.43;;;12.37;;
6388;SDS011;3227;42.654;23.360;2022-10-31T07:15:37;17.93;;;11.20;;
6388;SDS011;3227;42.654;23.360;2022-10-31T07:18:06;19.40;;;11.87;;
6388;SDS011;3227;42.654;23.360;2022-10-31T07:20:34;18.40;;;12.03;;
6388;SDS011;3227;42.654;23.360;2022-10-31T07:23:01;20.83;;;12.03;;
6388;SDS011;3227;42.654;23.360;2022-10-31T07:25:28;21.80;;;12.50;;
6388;SDS011;3227;42.654;23.360;2022-10-31T07:27:56;23.43;;;12.57;;
6388;SDS011;3227;42.654;23.360;2022-10-31T07:30:23;24.73;;;13.23;;
6388;SDS011;3227;42.654;23.360;2022-10-31T07:32:50;21.57;;;12.40;;
6388;SDS011;3227;42.654;23.360;2022-10-31T07:35:18;22.33;;;13.30;;
6388;SDS011;3227;42.654;23.360;2022-10-31T07:37:46;20.23;;;12.90;;
6388;SDS011;3227;42.654;23.360;2022-10-31T07:40:13;19.60;;;13.07;;
6388;SDS011;3227;42.654;23.360;2022-10-31T07:42:41;24.83;;;13.23;;
6388;SDS011;3227;42.654;23.360;2022-10-31T07:45:11;22.37;;;13.90;;
6388;SDS011;3227;42.654;23.360;2022-10-31T07:47:39;22.20;;;13.43;;
6388;SDS011;3227;42.654;23.360;2022-10-31T07:50:06;28.90;;;14.37;;
6388;SDS011;3227;42.654;23.360;2022-10-31T07:52:34;25.63;;;13.40;;
6388;SDS011;3227;42.654;23.360;2022-10-31T07:55:01;22.47;;;13.80;;
6388;SDS011;3227;42.654;23.360;2022-10-31T07:57:29;28.00;;;13.63;;
6388;SDS011;3227;42.654;23.360;2022-10-31T07:59:55;23.23;;;14.57;;
6388;SDS011;3227;42.654;23.360;2022-10-31T08:02:24;21.27;;;14.13;;
6388;SDS011;3227;42.654;23.360;2022-10-31T08:04:51;26.83;;;14.83;;
6388;SDS011;3227;42.654;23.360;2022-10-31T08:07:18;24.23;;;13.20;;
6388;SDS011;3227;42.654;23.360;2022-10-31T08:09:44;20.33;;;13.37;;
6388;SDS011;3227;42.654;23.360;2022-10-31T08:12:11;20.10;;;13.57;;
6388;SDS011;3227;42.654;23.360;2022-10-31T08:14:38;20.93;;;13.90;;
6388;SDS011;3227;42.654;23.360;2022-10-31T08:17:05;25.37;;;14.50;;
6388;SDS011;3227;42.654;23.360;2022-10-31T08:19:33;22.40;;;14.83;;
6388;SDS011;3227;42.654;23.360;2022-10-31T08:22:00;25.73;;;14.60;;
6388;SDS011;3227;42.654;23.360;2022-10-31T08:24:26;22.97;;;13.83;;
6388;SDS011;3227;42.654;23.360;2022-10-31T08:26:53;27.63;;;14.53;;
6388;SDS011;3227;42.654;23.360;2022-10-31T08:29:20;24.80;;;14.60;;
6388;SDS011;3227;42.654;23.360;2022-10-31T08:31:47;23.27;;;14.77;;
6388;SDS011;3227;42.654;23.360;2022-10-31T08:34:14;26.40;;;14.97;;
6388;SDS011;3227;42.654;23.360;2022-10-31T08:36:42;22.20;;;14.07;;
6388;SDS011;3227;42.654;23.360;2022-10-31T08:39:10;26.60;;;14.33;;
6388;SDS011;3227;42.654;23.360;2022-10-31T08:41:36;22.33;;;13.37;;
6388;SDS011;3227;42.654;23.360;2022-10-31T08:44:03;27.03;;;15.03;;
6388;SDS011;3227;42.654;23.360;2022-10-31T08:46:30;22.37;;;13.63;;
6388;SDS011;3227;42.654;23.360;2022-10-31T08:48:57;22.67;;;12.77;;
6388;SDS011;3227;42.654;23.360;2022-10-31T08:51:24;27.67;;;13.20;;
6388;SDS011;3227;42.654;23.360;2022-10-31T08:53:52;22.75;;;13.18;;
6388;SDS011;3227;42.654;23.360;2022-10-31T08:56:19;30.87;;;12.27;;
6388;SDS011;3227;42.654;23.360;2022-10-31T08:58:47;18.53;;;12.50;;
6388;SDS011;3227;42.654;23.360;2022-10-31T09:01:14;21.55;;;12.13;;
6388;SDS011;3227;42.654;23.360;2022-10-31T09:03:41;19.58;;;11.82;;
6388;SDS011;3227;42.654;23.360;2022-10-31T09:06:07;22.45;;;11.65;;
6388;SDS011;3227;42.654;23.360;2022-10-31T09:08:34;20.35;;;11.52;;
6388;SDS011;3227;42.654;23.360;2022-10-31T09:11:03;20.75;;;11.52;;
6388;SDS011;3227;42.654;23.360;2022-10-31T09:13:31;18.02;;;10.95;;
6388;SDS011;3227;42.654;23.360;2022-10-31T09:18:50;29.02;;;12.15;;
6388;SDS011;3227;42.654;23.360;2022-10-31T09:21:16;25.50;;;11.60;;
6388;SDS011;3227;42.654;23.360;2022-10-31T09:23:43;20.58;;;11.23;;
6388;SDS011;3227;42.654;23.360;2022-10-31T09:26:11;22.88;;;10.77;;
6388;SDS011;3227;42.654;23.360;2022-10-31T09:28:38;22.45;;;10.60;;
6388;SDS011;3227;42.654;23.360;2022-10-31T09:31:05;19.50;;;10.85;;
6388;SDS011;3227;42.654;23.360;2022-10-31T09:33:31;16.80;;;10.73;;
6388;SDS011;3227;42.654;23.360;2022-10-31T09:35:58;23.20;;;12.57;;
6388;SDS011;3227;42.654;23.360;2022-10-31T09:38:25;20.85;;;11.50;;
6388;SDS011;3227;42.654;23.360;2022-10-31T09:40:52;24.17;;;11.50;;
6388;SDS011;3227;42.654;23.360;2022-10-31T09:43:30;22.80;;;11.18;;
6388;SDS011;3227;42.654;23.360;2022-10-31T09:46:07;24.83;;;11.07;;
6388;SDS011;3227;42.654;23.360;2022-10-31T09:48:43;19.40;;;10.60;;
6388;SDS011;3227;42.654;23.360;2022-10-31T09:51:22;25.15;;;10.93;;
6388;SDS011;3227;42.654;23.360;2022-10-31T09:53:54;21.45;;;10.75;;
6388;SDS011;3227;42.654;23.360;2022-10-31T09:56:26;17.55;;;10.48;;
6388;SDS011;3227;42.654;23.360;2022-10-31T09:58:56;19.77;;;10.60;;
6388;SDS011;3227;42.654;23.360;2022-10-31T10:01:34;20.98;;;10.05;;
6388;SDS011;3227;42.654;23.360;2022-10-31T10:04:22;25.65;;;9.75;;
6388;SDS011;3227;42.654;23.360;2022-10-31T10:06:57;19.73;;;9.75;;
6388;SDS011;3227;42.654;23.360;2022-10-31T10:09:26;18.38;;;9.60;;
6388;SDS011;3227;42.654;23.360;2022-10-31T10:11:55;14.45;;;7.47;;
6388;SDS011;3227;42.654;23.360;2022-10-31T10:14:35;19.27;;;6.65;;
6388;SDS011;3227;42.654;23.360;2022-10-31T10:17:16;13.88;;;6.88;;
6388;SDS011;3227;42.654;23.360;2022-10-31T10:20:09;14.45;;;7.10;;
6388;SDS011;3227;42.654;23.360;2022-10-31T10:22:52;18.00;;;6.38;;
6388;SDS011;3227;42.654;23.360;2022-10-31T10:25:31;14.00;;;6.38;;
6388;SDS011;3227;42.654;23.360;2022-10-31T10:28:08;16.05;;;6.47;;
6388;SDS011;3227;42.654;23.360;2022-10-31T10:30:46;12.70;;;6.75;;
6388;SDS011;3227;42.654;23.360;2022-10-31T10:33:18;12.40;;;5.07;;
6388;SDS011;3227;42.654;23.360;2022-10-31T10:35:53;15.93;;;5.55;;
6388;SDS011;3227;42.654;23.360;2022-10-31T10:38:26;14.10;;;5.80;;
6388;SDS011;3227;42.654;23.360;2022-10-31T10:40:56;11.93;;;4.68;;
6388;SDS011;3227;42.654;23.360;2022-10-31T10:43:29;17.63;;;5.15;;
6388;SDS011;3227;42.654;23.360;2022-10-31T10:46:14;12.43;;;5.40;;
6388;SDS011;3227;42.654;23.360;2022-10-31T10:49:04;13.57;;;5.15;;
6388;SDS011;3227;42.654;23.360;2022-10-31T10:51:40;10.98;;;4.75;;
6388;SDS011;3227;42.654;23.360;2022-10-31T10:54:33;11.90;;;4.43;;
6388;SDS011;3227;42.654;23.360;2022-10-31T11:00:17;13.73;;;4.20;;
6388;SDS011;3227;42.654;23.360;2022-10-31T11:02:47;9.88;;;4.38;;
6388;SDS011;3227;42.654;23.360;2022-10-31T11:05:18;10.43;;;4.13;;
6388;SDS011;3227;42.654;23.360;2022-10-31T11:07:50;10.82;;;4.35;;
6388;SDS011;3227;42.654;23.360;2022-10-31T11:10:17;14.70;;;3.47;;
6388;SDS011;3227;42.654;23.360;2022-10-31T11:12:44;10.38;;;4.00;;
6388;SDS011;3227;42.654;23.360;2022-10-31T11:15:24;8.38;;;4.18;;
6388;SDS011;3227;42.654;23.360;2022-10-31T11:17:54;14.07;;;4.40;;
6388;SDS011;3227;42.654;23.360;2022-10-31T11:20:24;16.55;;;4.50;;
6388;SDS011;3227;42.654;23.360;2022-10-31T11:23:00;12.30;;;4.45;;
6388;SDS011;3227;42.654;23.360;2022-10-31T11:25:34;12.73;;;4.18;;
6388;SDS011;3227;42.654;23.360;2022-10-31T11:28:01;13.75;;;3.97;;
6388;SDS011;3227;42.654;23.360;2022-10-31T11:30:30;13.48;;;4.32;;
6388;SDS011;3227;42.654;23.360;2022-10-31T11:33:03;12.10;;;4.13;;
6388;SDS011;3227;42.654;23.360;2022-10-31T11:35:30;16.08;;;4.30;;
6388;SDS011;3227;42.654;23.360;2022-10-31T11:37:57;11.27;;;3.97;;
6388;SDS011;3227;42.654;23.360;2022-10-31T11:40:27;11.13;;;4.07;;
6388;SDS011;3227;42.654;23.360;2022-10-31T11:42:54;12.27;;;4.03;;
6388;SDS011;3227;42.654;23.360;2022-10-31T11:45:28;11.07;;;4.72;;
6388;SDS011;3227;42.654;23.360;2022-10-31T11:47:57;10.85;;;4.15;;
6388;SDS011;3227;42.654;23.360;2022-10-31T11:50:29;9.13;;;3.97;;
6388;SDS011;3227;42.654;23.360;2022-10-31T11:53:00;11.32;;;4.40;;
6388;SDS011;3227;42.654;23.360;2022-10-31T11:55:32;15.98;;;5.00;;
6388;SDS011;3227;42.654;23.360;2022-10-31T11:58:00;15.05;;;4.38;;
6388;SDS011;3227;42.654;23.360;2022-10-31T12:00:28;14.25;;;4.70;;
6388;SDS011;3227;42.654;23.360;2022-10-31T12:03:14;8.48;;;3.75;;
6388;SDS011;3227;42.654;23.360;2022-10-31T12:05:55;10.02;;;3.75;;
6388;SDS011;3227;42.654;23.360;2022-10-31T12:08:28;16.58;;;4.32;;
6388;SDS011;3227;42.654;23.360;2022-10-31T12:10:58;13.57;;;4.28;;
6388;SDS011;3227;42.654;23.360;2022-10-31T12:13:34;10.70;;;4.30;;
6388;SDS011;3227;42.654;23.360;2022-10-31T12:16:08;11.57;;;4.50;;
6388;SDS011;3227;42.654;23.360;2022-10-31T12:18:49;14.45;;;4.97;;
6388;SDS011;3227;42.654;23.360;2022-10-31T12:21:41;10.25;;;4.00;;
6388;SDS011;3227;42.654;23.360;2022-10-31T12:24:20;11.98;;;4.30;;
6388;SDS011;3227;42.654;23.360;2022-10-31T12:27:03;12.02;;;4.13;;
6388;SDS011;3227;42.654;23.360;2022-10-31T12:29:47;12.63;;;4.22;;
6388;SDS011;3227;42.654;23.360;2022-10-31T12:32:29;8.02;;;3.92;;
6388;SDS011;3227;42.654;23.360;2022-10-31T12:41:03;13.23;;;4.85;;
6388;SDS011;3227;42.654;23.360;2022-10-31T12:43:43;13.05;;;4.05;;
6388;SDS011;3227;42.654;23.360;2022-10-31T12:46:16;9.60;;;4.07;;
6388;SDS011;3227;42.654;23.360;2022-10-31T12:51:46;14.60;;;4.25;;
6388;SDS011;3227;42.654;23.360;2022-10-31T12:54:26;15.57;;;3.85;;
6388;SDS011;3227;42.654;23.360;2022-10-31T12:57:08;17.52;;;4.40;;
6388;SDS011;3227;42.654;23.360;2022-10-31T12:59:48;16.33;;;4.35;;
6388;SDS011;3227;42.654;23.360;2022-10-31T13:02:20;14.38;;;4.57;;
6388;SDS011;3227;42.654;23.360;2022-10-31T13:04:51;13.15;;;3.95;;
6388;SDS011;3227;42.654;23.360;2022-10-31T13:07:23;9.30;;;4.22;;
6388;SDS011;3227;42.654;23.360;2022-10-31T13:09:58;13.73;;;4.22;;
6388;SDS011;3227;42.654;23.360;2022-10-31T13:12:29;12.60;;;4.05;;
6388;SDS011;3227;42.654;23.360;2022-10-31T13:14:59;14.38;;;4.20;;
6388;SDS011;3227;42.654;23.360;2022-10-31T13:17:33;12.48;;;4.10;;
6388;SDS011;3227;42.654;23.360;2022-10-31T13:20:11;13.20;;;4.28;;
6388;SDS011;3227;42.654;23.360;2022-10-31T13:22:42;10.82;;;4.00;;
6388;SDS011;3227;42.654;23.360;2022-10-31T13:25:15;13.85;;;4.32;;
6388;SDS011;3227;42.654;23.360;2022-10-31T13:27:47;13.43;;;4.00;;
6388;SDS011;3227;42.654;23.360;2022-10-31T13:30:18;14.45;;;4.72;;
6388;SDS011;3227;42.654;23.360;2022-10-31T13:32:48;10.68;;;4.25;;
6388;SDS011;3227;42.654;23.360;2022-10-31T13:35:21;11.93;;;4.18;;
6388;SDS011;3227;42.654;23.360;2022-10-31T13:37:56;13.88;;;3.92;;
6388;SDS011;3227;42.654;23.360;2022-10-31T13:40:34;12.48;;;3.83;;
6388;SDS011;3227;42.654;23.360;2022-10-31T13:43:10;12.82;;;4.03;;
6388;SDS011;3227;42.654;23.360;2022-10-31T13:45:49;13.57;;;4.90;;
6388;SDS011;3227;42.654;23.360;2022-10-31T13:48:18;11.02;;;4.30;;
6388;SDS011;3227;42.654;23.360;2022-10-31T13:51:02;16.25;;;4.22;;
6388;SDS011;3227;42.654;23.360;2022-10-31T13:53:36;16.63;;;4.43;;
6388;SDS011;3227;42.654;23.360;2022-10-31T13:56:11;8.85;;;4.00;;
6388;SDS011;3227;42.654;23.360;2022-10-31T13:58:42;17.30;;;4.20;;
6388;SDS011;3227;42.654;23.360;2022-10-31T14:01:23;12.52;;;3.90;;
6388;SDS011;3227;42.654;23.360;2022-10-31T14:03:55;10.75;;;4.00;;
6388;SDS011;3227;42.654;23.360;2022-10-31T14:06:34;17.98;;;4.88;;
6388;SDS011;3227;42.654;23.360;2022-10-31T14:09:03;16.15;;;4.57;;
6388;SDS011;3227;42.654;23.360;2022-10-31T14:11:32;13.98;;;4.20;;
6388;SDS011;3227;42.654;23.360;2022-10-31T14:13:59;16.25;;;4.78;;
6388;SDS011;3227;42.654;23.360;2022-10-31T14:16:27;16.77;;;4.50;;
6388;SDS011;3227;42.654;23.360;2022-10-31T14:18:58;14.27;;;4.35;;
6388;SDS011;3227;42.654;23.360;2022-10-31T14:21:28;11.07;;;4.28;;
6388;SDS011;3227;42.654;23.360;2022-10-31T14:23:56;13.13;;;5.57;;
6388;SDS011;3227;42.654;23.360;2022-10-31T14:26:32;13.10;;;4.93;;
6388;SDS011;3227;42.654;23.360;2022-10-31T14:29:02;13.43;;;4.57;;
6388;SDS011;3227;42.654;23.360;2022-10-31T14:31:44;12.30;;;4.60;;
6388;SDS011;3227;42.654;23.360;2022-10-31T14:34:19;13.57;;;5.30;;
6388;SDS011;3227;42.654;23.360;2022-10-31T14:36:56;12.45;;;4.85;;
6388;SDS011;3227;42.654;23.360;2022-10-31T14:39:32;13.52;;;5.88;;
6388;SDS011;3227;42.654;23.360;2022-10-31T14:42:11;16.17;;;5.38;;
6388;SDS011;3227;42.654;23.360;2022-10-31T14:44:52;26.92;;;5.70;;
6388;SDS011;3227;42.654;23.360;2022-10-31T14:47:31;15.02;;;6.20;;
6388;SDS011;3227;42.654;23.360;2022-10-31T14:53:14;18.88;;;5.70;;
6388;SDS011;3227;42.654;23.360;2022-10-31T14:55:48;17.40;;;5.53;;
6388;SDS011;3227;42.654;23.360;2022-10-31T14:58:20;19.63;;;6.65;;
6388;SDS011;3227;42.654;23.360;2022-10-31T15:00:51;21.27;;;6.40;;
6388;SDS011;3227;42.654;23.360;2022-10-31T15:03:22;20.80;;;6.82;;
6388;SDS011;3227;42.654;23.360;2022-10-31T15:05:54;24.60;;;6.38;;
6388;SDS011;3227;42.654;23.360;2022-10-31T15:08:33;39.63;;;10.63;;
6388;SDS011;3227;42.654;23.360;2022-10-31T15:11:11;36.00;;;9.27;;
6388;SDS011;3227;42.654;23.360;2022-10-31T15:13:47;31.08;;;9.57;;
6388;SDS011;3227;42.654;23.360;2022-10-31T15:16:16;22.73;;;8.02;;
6388;SDS011;3227;42.654;23.360;2022-10-31T15:18:51;34.60;;;8.20;;
6388;SDS011;3227;42.654;23.360;2022-10-31T15:21:20;34.15;;;9.05;;
6388;SDS011;3227;42.654;23.360;2022-10-31T15:23:49;30.73;;;8.07;;
6388;SDS011;3227;42.654;23.360;2022-10-31T15:26:19;29.42;;;8.57;;
6388;SDS011;3227;42.654;23.360;2022-10-31T15:28:58;19.20;;;7.35;;
6388;SDS011;3227;42.654;23.360;2022-10-31T15:31:27;27.25;;;7.00;;
6388;SDS011;3227;42.654;23.360;2022-10-31T15:33:56;29.05;;;8.85;;